Time,TemperatureF,DewpointF,PressureIn,WindDirection,WindDirectionDegrees,WindSpeedMPH,WindSpeedGustMPH,Humidity,HourlyPrecipIn,Conditions,Clouds,dailyrainin,SoftwareType,DateUTC
2013-03-08 00:00:00,27.5,18.4,29.46,NNW,338,0.0,0.0,68,0.00,,,0.00,WUHU216HW,2013-03-08 09:00:00,
2013-03-08 00:05:00,27.5,18.4,29.46,NNW,338,0.0,0.0,68,0.00,,,0.00,WUHU216HW,2013-03-08 09:05:00,
2013-03-08 00:30:00,26.6,18.8,29.47,ENE,68,0.0,0.0,72,0.00,,,0.00,WUHU216HW,2013-03-08 09:30:00,
2013-03-08 00:35:00,26.6,18.8,29.47,ENE,68,0.0,0.0,72,0.00,,,0.00,WUHU216HW,2013-03-08 09:35:00,
2013-03-08 01:00:00,26.3,18.5,29.48,ESE,113,0.0,0.0,72,0.00,,,0.00,WUHU216HW,2013-03-08 10:00:00,
2013-03-08 01:05:00,26.3,18.5,29.48,ESE,113,0.0,0.0,72,0.00,,,0.00,WUHU216HW,2013-03-08 10:05:00,
2013-03-08 01:30:00,25.7,17.9,29.49,ESE,113,0.0,0.0,72,0.00,,,0.00,WUHU216HW,2013-03-08 10:30:00,
2013-03-08 01:35:00,25.7,17.9,29.49,ESE,113,0.0,0.0,72,0.00,,,0.00,WUHU216HW,2013-03-08 10:35:00,
2013-03-08 02:00:00,25.2,17.1,29.50,ESE,113,0.0,0.0,71,0.00,,,0.00,WUHU216HW,2013-03-08 11:00:00,
2013-03-08 02:05:00,25.2,17.1,29.50,ESE,113,0.0,0.0,71,0.00,,,0.00,WUHU216HW,2013-03-08 11:05:00,
2013-03-08 02:30:00,24.7,16.8,29.51,North,0,0.0,0.0,72,0.00,,,0.00,WUHU216HW,2013-03-08 11:30:00,
2013-03-08 02:35:00,24.7,16.8,29.51,North,0,0.0,0.0,72,0.00,,,0.00,WUHU216HW,2013-03-08 11:35:00,
2013-03-08 03:00:00,23.4,16.9,29.51,ESE,113,0.0,0.0,76,0.00,,,0.00,WUHU216HW,2013-03-08 12:00:00,
2013-03-08 03:05:00,23.4,16.9,29.51,ESE,113,0.0,0.0,76,0.00,,,0.00,WUHU216HW,2013-03-08 12:05:00,
2013-03-08 03:30:00,21.6,14.9,29.51,ESE,113,0.0,0.0,75,0.00,,,0.00,WUHU216HW,2013-03-08 12:30:00,
2013-03-08 03:35:00,21.6,14.9,29.51,ESE,113,0.0,0.0,75,0.00,,,0.00,WUHU216HW,2013-03-08 12:35:00,
2013-03-08 04:00:00,21.2,15.8,29.51,ESE,113,0.4,0.4,79,0.00,,,0.00,WUHU216HW,2013-03-08 13:00:00,
2013-03-08 04:05:00,21.2,15.8,29.51,ESE,113,0.4,0.4,79,0.00,,,0.00,WUHU216HW,2013-03-08 13:05:00,
2013-03-08 04:30:00,21.4,15.6,29.52,WNW,293,0.0,0.0,78,0.00,,,0.00,WUHU216HW,2013-03-08 13:30:00,
2013-03-08 04:35:00,21.4,15.6,29.52,WNW,293,0.0,0.0,78,0.00,,,0.00,WUHU216HW,2013-03-08 13:35:00,
2013-03-08 05:00:00,18.9,13.4,29.52,ENE,68,0.0,0.0,79,0.00,,,0.00,WUHU216HW,2013-03-08 14:00:00,
2013-03-08 05:05:00,18.9,13.4,29.52,ENE,68,0.0,0.0,79,0.00,,,0.00,WUHU216HW,2013-03-08 14:05:00,
2013-03-08 05:30:00,19.8,14.6,29.51,ENE,68,0.0,0.0,80,0.00,,,0.00,WUHU216HW,2013-03-08 14:30:00,
2013-03-08 05:35:00,19.8,14.6,29.51,ENE,68,0.0,0.0,80,0.00,,,0.00,WUHU216HW,2013-03-08 14:35:00,
2013-03-08 06:00:00,21.1,15.0,29.51,ENE,68,0.0,0.0,77,0.00,,,0.00,WUHU216HW,2013-03-08 15:00:00,
2013-03-08 06:05:00,21.1,15.0,29.51,ENE,68,0.0,0.0,77,0.00,,,0.00,WUHU216HW,2013-03-08 15:05:00,
2013-03-08 06:30:00,19.1,13.6,29.51,NNW,338,0.0,0.0,79,0.00,,,0.00,WUHU216HW,2013-03-08 15:30:00,
2013-03-08 06:35:00,19.1,13.6,29.51,NNW,338,0.0,0.0,79,0.00,,,0.00,WUHU216HW,2013-03-08 15:35:00,
2013-03-08 07:00:00,18.2,12.7,29.51,NW,315,0.0,0.0,79,0.00,,,0.00,WUHU216HW,2013-03-08 16:00:00,
2013-03-08 07:05:00,18.2,12.7,29.51,NW,315,0.0,0.0,79,0.00,,,0.00,WUHU216HW,2013-03-08 16:05:00,
2013-03-08 07:30:00,17.5,12.0,29.51,North,0,0.0,0.0,79,0.00,,,0.00,WUHU216HW,2013-03-08 16:30:00,
2013-03-08 07:35:00,17.5,12.0,29.51,North,0,0.0,0.0,79,0.00,,,0.00,WUHU216HW,2013-03-08 16:35:00,
2013-03-08 08:00:00,17.5,12.5,29.51,East,90,0.0,0.0,81,0.00,,,0.00,WUHU216HW,2013-03-08 17:00:00,
2013-03-08 08:05:00,17.5,12.5,29.51,East,90,0.0,0.0,81,0.00,,,0.00,WUHU216HW,2013-03-08 17:05:00,
2013-03-08 08:30:00,18.7,13.5,29.51,ESE,113,0.2,0.2,80,0.00,,,0.00,WUHU216HW,2013-03-08 17:30:00,
2013-03-08 08:35:00,18.7,13.5,29.51,ESE,113,0.2,0.2,80,0.00,,,0.00,WUHU216HW,2013-03-08 17:35:00,
2013-03-08 09:00:00,23.2,17.1,29.51,ENE,68,0.0,0.0,77,0.00,,,0.00,WUHU216HW,2013-03-08 18:00:00,
2013-03-08 09:05:00,23.2,17.1,29.51,ENE,68,0.0,0.0,77,0.00,,,0.00,WUHU216HW,2013-03-08 18:05:00,
2013-03-08 09:30:00,27.0,19.2,29.51,NNE,23,0.0,0.0,72,0.00,,,0.00,WUHU216HW,2013-03-08 18:30:00,
2013-03-08 09:35:00,27.0,19.2,29.51,NNE,23,0.0,0.0,72,0.00,,,0.00,WUHU216HW,2013-03-08 18:35:00,
2013-03-08 10:00:00,28.8,20.4,29.51,NNE,23,0.0,0.0,70,0.00,,,0.00,WUHU216HW,2013-03-08 19:00:00,
2013-03-08 10:05:00,28.8,20.4,29.51,NNE,23,0.0,0.0,70,0.00,,,0.00,WUHU216HW,2013-03-08 19:05:00,
2013-03-08 10:30:00,30.4,20.7,29.51,North,0,0.0,0.0,67,0.00,,,0.00,WUHU216HW,2013-03-08 19:30:00,
2013-03-08 10:35:00,30.4,20.7,29.51,North,0,0.0,0.0,67,0.00,,,0.00,WUHU216HW,2013-03-08 19:35:00,
2013-03-08 11:00:00,32.6,22.8,29.51,North,0,0.0,0.0,67,0.00,,,0.00,WUHU216HW,2013-03-08 20:00:00,
2013-03-08 11:05:00,32.6,22.8,29.51,North,0,0.0,0.0,67,0.00,,,0.00,WUHU216HW,2013-03-08 20:05:00,
2013-03-08 11:30:00,36.0,23.6,29.52,East,90,0.0,0.0,60,0.00,,,0.00,WUHU216HW,2013-03-08 20:30:00,
2013-03-08 11:35:00,36.0,23.6,29.52,East,90,0.0,0.0,60,0.00,,,0.00,WUHU216HW,2013-03-08 20:35:00,
2013-03-08 12:00:00,37.6,23.7,29.51,East,90,0.0,0.0,57,0.00,,,0.00,WUHU216HW,2013-03-08 21:00:00,
2013-03-08 12:05:00,37.6,23.7,29.51,East,90,0.0,0.0,57,0.00,,,0.00,WUHU216HW,2013-03-08 21:05:00,
2013-03-08 12:30:00,40.3,24.0,29.52,East,90,0.0,0.0,52,0.00,,,0.00,WUHU216HW,2013-03-08 21:30:00,
2013-03-08 12:35:00,40.3,24.0,29.52,East,90,0.0,0.0,52,0.00,,,0.00,WUHU216HW,2013-03-08 21:35:00,
2013-03-08 12:41:00,42.1,23.2,29.52,NE,45,1.8,1.8,47,0.00,,,0.00,WUHU216HW,2013-03-08 21:41:00,
2013-03-08 12:46:00,41.9,23.6,29.51,NNE,23,1.1,1.8,48,0.00,,,0.00,WUHU216HW,2013-03-08 21:46:00,
2013-03-08 12:51:00,41.9,23.0,29.51,ESE,113,1.6,1.8,47,0.00,,,0.00,WUHU216HW,2013-03-08 21:51:00,
2013-03-08 22:07:00,28.3,22.6,29.58,NNW,338,0.0,0.0,79,0.00,,,0.01,WUHU216HW,2013-03-09 07:07:00,
2013-03-08 22:12:00,27.9,22.2,29.59,NNW,338,0.0,0.0,79,0.00,,,0.20,WUHU216HW,2013-03-09 07:12:00,
2013-03-08 22:17:00,27.5,21.5,29.58,NNW,338,0.0,0.0,78,0.00,,,0.20,WUHU216HW,2013-03-09 07:17:00,
2013-03-08 22:22:00,27.4,23.1,29.59,ESE,113,0.0,0.0,84,0.00,,,0.20,WUHU216HW,2013-03-09 07:22:00,
2013-03-08 22:27:00,27.0,23.0,29.59,ESE,113,0.4,0.7,85,0.00,,,0.20,WUHU216HW,2013-03-09 07:27:00,
2013-03-08 22:32:00,26.8,22.3,29.59,ESE,113,0.6,0.7,83,0.00,,,0.20,WUHU216HW,2013-03-09 07:32:00,
2013-03-08 22:37:00,27.0,22.5,29.59,ESE,113,0.0,0.7,83,0.00,,,0.20,WUHU216HW,2013-03-09 07:37:00,
2013-03-08 22:42:00,26.8,21.7,29.59,ESE,113,0.0,0.4,81,0.00,,,0.20,WUHU216HW,2013-03-09 07:42:00,
2013-03-08 22:47:00,26.3,21.3,29.59,ESE,113,0.0,0.0,81,0.00,,,0.20,WUHU216HW,2013-03-09 07:47:00,
2013-03-08 22:52:00,26.1,21.3,29.59,East,90,0.4,0.4,82,0.00,,,0.20,WUHU216HW,2013-03-09 07:52:00,
2013-03-08 22:57:00,26.1,21.3,29.59,ENE,68,0.0,0.4,82,0.00,,,0.20,WUHU216HW,2013-03-09 07:57:00,
2013-03-08 23:02:00,25.9,21.2,29.60,NNE,23,0.0,0.4,82,0.00,,,0.20,WUHU216HW,2013-03-09 08:02:00,
2013-03-08 23:07:00,25.6,21.4,29.60,ESE,113,0.0,0.4,84,0.00,,,0.20,WUHU216HW,2013-03-09 08:07:00,
2013-03-08 23:12:00,25.4,20.7,29.61,ESE,113,0.0,0.4,82,0.00,,,0.20,WUHU216HW,2013-03-09 08:12:00,
2013-03-08 23:17:00,25.0,20.4,29.61,ESE,113,0.0,0.0,82,0.00,,,0.20,WUHU216HW,2013-03-09 08:17:00,
2013-03-08 23:22:00,25.0,20.4,29.61,ESE,113,0.0,0.0,82,0.00,,,0.20,WUHU216HW,2013-03-09 08:22:00,
2013-03-08 23:27:00,25.2,20.5,29.61,ESE,113,0.2,0.4,82,0.00,,,0.20,WUHU216HW,2013-03-09 08:27:00,
2013-03-08 23:32:00,25.0,20.4,29.61,ESE,113,0.0,0.4,82,0.00,,,0.20,WUHU216HW,2013-03-09 08:32:00,
2013-03-08 23:37:00,24.7,19.7,29.61,NE,45,0.0,0.0,81,0.00,,,0.20,WUHU216HW,2013-03-09 08:37:00,
2013-03-08 23:42:00,24.5,19.5,29.61,NE,45,0.0,0.0,81,0.00,,,0.20,WUHU216HW,2013-03-09 08:42:00,
2013-03-08 23:47:00,24.3,19.6,29.62,ENE,68,0.2,0.2,82,0.00,,,0.20,WUHU216HW,2013-03-09 08:47:00,
2013-03-08 23:52:00,24.5,19.8,29.62,ENE,68,0.0,0.2,82,0.00,,,0.20,WUHU216HW,2013-03-09 08:52:00,
2013-03-08 23:57:00,24.1,19.4,29.62,ENE,68,0.0,0.0,82,0.00,,,0.20,WUHU216HW,2013-03-09 08:57:00,